sensor_id;sensor_type;location;lat;lon;timestamp;P1;durP1;ratioP1;P2;durP2;ratioP2
66384;SDS011;53426;55.872;37.462;2022-08-18T00:01:06;21.55;;;7.80;;
66384;SDS011;53426;55.872;37.462;2022-08-18T00:03:34;20.80;;;7.90;;
66384;SDS011;53426;55.872;37.462;2022-08-18T00:06:00;18.38;;;7.82;;
66384;SDS011;53426;55.872;37.462;2022-08-18T00:08:25;20.67;;;7.80;;
66384;SDS011;53426;55.872;37.462;2022-08-18T00:10:54;20.08;;;7.40;;
66384;SDS011;53426;55.872;37.462;2022-08-18T00:13:20;13.18;;;7.00;;
66384;SDS011;53426;55.872;37.462;2022-08-18T00:15:46;11.75;;;7.13;;
66384;SDS011;53426;55.872;37.462;2022-08-18T00:18:11;12.45;;;6.78;;
66384;SDS011;53426;55.872;37.462;2022-08-18T00:20:38;11.00;;;6.75;;
66384;SDS011;53426;55.872;37.462;2022-08-18T00:23:04;13.23;;;6.65;;
66384;SDS011;53426;55.872;37.462;2022-08-18T00:25:30;13.30;;;7.20;;
66384;SDS011;53426;55.872;37.462;2022-08-18T00:27:56;19.48;;;6.90;;
66384;SDS011;53426;55.872;37.462;2022-08-18T00:30:21;10.55;;;6.45;;
66384;SDS011;53426;55.872;37.462;2022-08-18T00:32:49;10.95;;;6.85;;
66384;SDS011;53426;55.872;37.462;2022-08-18T00:35:38;14.88;;;6.68;;
66384;SDS011;53426;55.872;37.462;2022-08-18T00:38:04;15.85;;;6.75;;
66384;SDS011;53426;55.872;37.462;2022-08-18T00:40:39;17.83;;;6.65;;
66384;SDS011;53426;55.872;37.462;2022-08-18T00:43:12;16.30;;;7.38;;
66384;SDS011;53426;55.872;37.462;2022-08-18T00:45:44;13.02;;;6.60;;
66384;SDS011;53426;55.872;37.462;2022-08-18T00:48:11;15.10;;;6.10;;
66384;SDS011;53426;55.872;37.462;2022-08-18T00:50:42;14.50;;;7.20;;
66384;SDS011;53426;55.872;37.462;2022-08-18T00:55:48;13.52;;;5.97;;
66384;SDS011;53426;55.872;37.462;2022-08-18T00:58:17;8.23;;;6.30;;
66384;SDS011;53426;55.872;37.462;2022-08-18T01:00:49;8.63;;;6.10;;
66384;SDS011;53426;55.872;37.462;2022-08-18T01:03:16;12.90;;;6.43;;
66384;SDS011;53426;55.872;37.462;2022-08-18T01:05:50;14.18;;;7.07;;
66384;SDS011;53426;55.872;37.462;2022-08-18T01:08:20;12.93;;;6.13;;
66384;SDS011;53426;55.872;37.462;2022-08-18T01:10:46;10.60;;;6.13;;
66384;SDS011;53426;55.872;37.462;2022-08-18T01:13:13;13.23;;;6.15;;
66384;SDS011;53426;55.872;37.462;2022-08-18T01:15:40;10.48;;;5.53;;
66384;SDS011;53426;55.872;37.462;2022-08-18T01:18:08;11.23;;;6.07;;
66384;SDS011;53426;55.872;37.462;2022-08-18T01:23:55;9.85;;;6.32;;
66384;SDS011;53426;55.872;37.462;2022-08-18T01:26:22;12.98;;;7.05;;
66384;SDS011;53426;55.872;37.462;2022-08-18T01:28:51;12.27;;;6.30;;
66384;SDS011;53426;55.872;37.462;2022-08-18T01:31:29;6.97;;;6.00;;
66384;SDS011;53426;55.872;37.462;2022-08-18T01:34:01;9.32;;;6.25;;
66384;SDS011;53426;55.872;37.462;2022-08-18T01:36:28;10.75;;;6.40;;
66384;SDS011;53426;55.872;37.462;2022-08-18T01:38:55;11.90;;;6.00;;
66384;SDS011;53426;55.872;37.462;2022-08-18T01:41:21;14.13;;;6.68;;
66384;SDS011;53426;55.872;37.462;2022-08-18T01:43:48;13.57;;;6.38;;
66384;SDS011;53426;55.872;37.462;2022-08-18T01:46:18;14.07;;;5.78;;
66384;SDS011;53426;55.872;37.462;2022-08-18T01:48:46;11.73;;;5.80;;
66384;SDS011;53426;55.872;37.462;2022-08-18T01:51:13;10.95;;;6.55;;
66384;SDS011;53426;55.872;37.462;2022-08-18T01:53:38;11.90;;;5.55;;
66384;SDS011;53426;55.872;37.462;2022-08-18T01:56:05;10.82;;;6.15;;
66384;SDS011;53426;55.872;37.462;2022-08-18T01:58:32;14.90;;;6.05;;
66384;SDS011;53426;55.872;37.462;2022-08-18T02:00:59;13.13;;;6.13;;
66384;SDS011;53426;55.872;37.462;2022-08-18T02:03:33;8.48;;;6.60;;
66384;SDS011;53426;55.872;37.462;2022-08-18T02:06:02;10.60;;;5.82;;
66384;SDS011;53426;55.872;37.462;2022-08-18T02:08:30;14.85;;;6.57;;
66384;SDS011;53426;55.872;37.462;2022-08-18T02:10:56;15.90;;;6.10;;
66384;SDS011;53426;55.872;37.462;2022-08-18T02:13:25;15.27;;;6.82;;
66384;SDS011;53426;55.872;37.462;2022-08-18T02:15:51;13.18;;;6.40;;
66384;SDS011;53426;55.872;37.462;2022-08-18T02:18:18;12.95;;;7.13;;
66384;SDS011;53426;55.872;37.462;2022-08-18T02:20:45;13.63;;;6.22;;
66384;SDS011;53426;55.872;37.462;2022-08-18T02:23:12;13.38;;;7.10;;
66384;SDS011;53426;55.872;37.462;2022-08-18T02:25:40;14.30;;;6.82;;
66384;SDS011;53426;55.872;37.462;2022-08-18T02:28:08;11.38;;;6.65;;
66384;SDS011;53426;55.872;37.462;2022-08-18T02:30:34;8.50;;;6.82;;
66384;SDS011;53426;55.872;37.462;2022-08-18T02:33:04;16.23;;;6.82;;
66384;SDS011;53426;55.872;37.462;2022-08-18T02:35:32;15.25;;;7.72;;
66384;SDS011;53426;55.872;37.462;2022-08-18T02:37:59;12.73;;;7.32;;
66384;SDS011;53426;55.872;37.462;2022-08-18T02:40:26;18.17;;;7.50;;
66384;SDS011;53426;55.872;37.462;2022-08-18T02:42:53;16.55;;;7.90;;
66384;SDS011;53426;55.872;37.462;2022-08-18T02:45:19;14.05;;;6.95;;
66384;SDS011;53426;55.872;37.462;2022-08-18T02:47:50;13.93;;;8.25;;
66384;SDS011;53426;55.872;37.462;2022-08-18T02:50:16;13.60;;;8.05;;
66384;SDS011;53426;55.872;37.462;2022-08-18T02:52:42;15.48;;;8.93;;
66384;SDS011;53426;55.872;37.462;2022-08-18T02:55:08;12.70;;;8.20;;
66384;SDS011;53426;55.872;37.462;2022-08-18T02:57:34;9.88;;;8.25;;
66384;SDS011;53426;55.872;37.462;2022-08-18T03:00:00;23.30;;;9.15;;
66384;SDS011;53426;55.872;37.462;2022-08-18T03:02:27;12.48;;;8.90;;
66384;SDS011;53426;55.872;37.462;2022-08-18T03:04:53;12.63;;;8.57;;
66384;SDS011;53426;55.872;37.462;2022-08-18T03:07:18;14.52;;;8.80;;
66384;SDS011;53426;55.872;37.462;2022-08-18T03:09:44;13.95;;;8.18;;
66384;SDS011;53426;55.872;37.462;2022-08-18T03:12:10;22.35;;;8.95;;
66384;SDS011;53426;55.872;37.462;2022-08-18T03:14:36;11.23;;;8.90;;
66384;SDS011;53426;55.872;37.462;2022-08-18T03:17:04;15.90;;;8.73;;
66384;SDS011;53426;55.872;37.462;2022-08-18T03:19:32;12.50;;;10.25;;
66384;SDS011;53426;55.872;37.462;2022-08-18T03:21:59;20.73;;;9.30;;
66384;SDS011;53426;55.872;37.462;2022-08-18T03:24:25;14.30;;;10.70;;
66384;SDS011;53426;55.872;37.462;2022-08-18T03:26:53;26.67;;;10.25;;
66384;SDS011;53426;55.872;37.462;2022-08-18T03:29:21;12.27;;;9.13;;
66384;SDS011;53426;55.872;37.462;2022-08-18T03:31:48;16.60;;;11.07;;
66384;SDS011;53426;55.872;37.462;2022-08-18T03:34:14;19.83;;;11.57;;
66384;SDS011;53426;55.872;37.462;2022-08-18T03:36:44;17.35;;;11.43;;
66384;SDS011;53426;55.872;37.462;2022-08-18T03:39:10;17.08;;;12.57;;
66384;SDS011;53426;55.872;37.462;2022-08-18T03:41:39;21.15;;;11.88;;
66384;SDS011;53426;55.872;37.462;2022-08-18T03:44:08;26.00;;;15.32;;
66384;SDS011;53426;55.872;37.462;2022-08-18T03:46:34;22.45;;;14.75;;
66384;SDS011;53426;55.872;37.462;2022-08-18T03:49:01;23.60;;;15.27;;
66384;SDS011;53426;55.872;37.462;2022-08-18T03:51:27;20.92;;;16.02;;
66384;SDS011;53426;55.872;37.462;2022-08-18T03:53:59;27.42;;;17.65;;
66384;SDS011;53426;55.872;37.462;2022-08-18T03:56:30;29.33;;;17.75;;
66384;SDS011;53426;55.872;37.462;2022-08-18T03:59:00;25.40;;;18.35;;
66384;SDS011;53426;55.872;37.462;2022-08-18T04:01:29;29.17;;;18.90;;
66384;SDS011;53426;55.872;37.462;2022-08-18T04:03:58;25.45;;;18.60;;
66384;SDS011;53426;55.872;37.462;2022-08-18T04:06:29;28.70;;;18.90;;
66384;SDS011;53426;55.872;37.462;2022-08-18T04:08:58;25.48;;;17.50;;
66384;SDS011;53426;55.872;37.462;2022-08-18T04:11:26;28.70;;;17.60;;
66384;SDS011;53426;55.872;37.462;2022-08-18T04:13:53;28.13;;;18.58;;
66384;SDS011;53426;55.872;37.462;2022-08-18T04:16:25;32.20;;;17.80;;
66384;SDS011;53426;55.872;37.462;2022-08-18T04:18:52;26.77;;;16.30;;
66384;SDS011;53426;55.872;37.462;2022-08-18T04:21:20;25.58;;;16.90;;
66384;SDS011;53426;55.872;37.462;2022-08-18T04:23:48;30.60;;;17.10;;
66384;SDS011;53426;55.872;37.462;2022-08-18T04:26:14;26.75;;;17.00;;
66384;SDS011;53426;55.872;37.462;2022-08-18T04:28:42;23.30;;;16.70;;
66384;SDS011;53426;55.872;37.462;2022-08-18T04:31:09;25.02;;;17.83;;
66384;SDS011;53426;55.872;37.462;2022-08-18T04:33:40;29.98;;;18.98;;
66384;SDS011;53426;55.872;37.462;2022-08-18T04:36:07;30.10;;;20.17;;
66384;SDS011;53426;55.872;37.462;2022-08-18T04:38:35;34.65;;;21.35;;
66384;SDS011;53426;55.872;37.462;2022-08-18T04:41:01;30.23;;;21.73;;
66384;SDS011;53426;55.872;37.462;2022-08-18T04:43:28;28.05;;;21.98;;
66384;SDS011;53426;55.872;37.462;2022-08-18T04:45:54;36.90;;;31.40;;
66384;SDS011;53426;55.872;37.462;2022-08-18T04:48:33;32.42;;;26.45;;
66384;SDS011;53426;55.872;37.462;2022-08-18T04:51:09;43.47;;;29.20;;
66384;SDS011;53426;55.872;37.462;2022-08-18T04:53:38;43.88;;;38.72;;
66384;SDS011;53426;55.872;37.462;2022-08-18T04:56:24;54.00;;;41.55;;
66384;SDS011;53426;55.872;37.462;2022-08-18T04:59:11;56.53;;;44.90;;
66384;SDS011;53426;55.872;37.462;2022-08-18T05:01:40;53.95;;;45.72;;
66384;SDS011;53426;55.872;37.462;2022-08-18T05:04:10;60.00;;;46.40;;
66384;SDS011;53426;55.872;37.462;2022-08-18T05:06:38;92.25;;;74.65;;
66384;SDS011;53426;55.872;37.462;2022-08-18T05:09:05;77.68;;;65.10;;
66384;SDS011;53426;55.872;37.462;2022-08-18T05:11:34;78.20;;;67.13;;
66384;SDS011;53426;55.872;37.462;2022-08-18T05:14:01;130.57;;;109.97;;
66384;SDS011;53426;55.872;37.462;2022-08-18T05:16:31;128.95;;;108.18;;
66384;SDS011;53426;55.872;37.462;2022-08-18T05:19:07;149.93;;;125.05;;
66384;SDS011;53426;55.872;37.462;2022-08-18T05:21:37;139.00;;;123.78;;
66384;SDS011;53426;55.872;37.462;2022-08-18T05:24:06;141.70;;;122.55;;
66384;SDS011;53426;55.872;37.462;2022-08-18T05:33:55;125.03;;;109.47;;
66384;SDS011;53426;55.872;37.462;2022-08-18T05:36:41;145.60;;;120.85;;
66384;SDS011;53426;55.872;37.462;2022-08-18T05:42:41;134.57;;;113.88;;
66384;SDS011;53426;55.872;37.462;2022-08-18T05:46:58;134.93;;;111.60;;
66384;SDS011;53426;55.872;37.462;2022-08-18T05:54:07;129.25;;;104.57;;
66384;SDS011;53426;55.872;37.462;2022-08-18T06:01:13;130.25;;;105.82;;
66384;SDS011;53426;55.872;37.462;2022-08-18T06:04:59;128.20;;;104.10;;
66384;SDS011;53426;55.872;37.462;2022-08-18T06:08:37;120.72;;;97.47;;
66384;SDS011;53426;55.872;37.462;2022-08-18T07:08:19;66.47;;;54.03;;
66384;SDS011;53426;55.872;37.462;2022-08-18T07:13:57;61.70;;;46.55;;
66384;SDS011;53426;55.872;37.462;2022-08-18T07:17:05;54.97;;;39.75;;
66384;SDS011;53426;55.872;37.462;2022-08-18T07:19:35;49.22;;;39.53;;
66384;SDS011;53426;55.872;37.462;2022-08-18T07:22:07;41.92;;;32.90;;
66384;SDS011;53426;55.872;37.462;2022-08-18T07:24:40;56.22;;;35.72;;
66384;SDS011;53426;55.872;37.462;2022-08-18T07:27:13;36.70;;;27.65;;
66384;SDS011;53426;55.872;37.462;2022-08-18T07:30:00;40.08;;;27.80;;
66384;SDS011;53426;55.872;37.462;2022-08-18T07:32:44;39.70;;;27.88;;
66384;SDS011;53426;55.872;37.462;2022-08-18T07:35:22;28.08;;;24.83;;
66384;SDS011;53426;55.872;37.462;2022-08-18T07:38:12;37.67;;;22.85;;
66384;SDS011;53426;55.872;37.462;2022-08-18T07:43:21;22.45;;;14.57;;
66384;SDS011;53426;55.872;37.462;2022-08-18T07:45:51;27.38;;;16.63;;
66384;SDS011;53426;55.872;37.462;2022-08-18T07:48:30;25.08;;;15.85;;
66384;SDS011;53426;55.872;37.462;2022-08-18T07:51:00;24.52;;;14.27;;
66384;SDS011;53426;55.872;37.462;2022-08-18T07:53:58;19.83;;;11.93;;
66384;SDS011;53426;55.872;37.462;2022-08-18T07:56:41;24.00;;;11.43;;
66384;SDS011;53426;55.872;37.462;2022-08-18T07:59:43;23.98;;;11.85;;
66384;SDS011;53426;55.872;37.462;2022-08-18T08:08:01;17.67;;;9.82;;
66384;SDS011;53426;55.872;37.462;2022-08-18T08:22:30;12.52;;;6.90;;
66384;SDS011;53426;55.872;37.462;2022-08-18T08:30:33;13.50;;;6.32;;
66384;SDS011;53426;55.872;37.462;2022-08-18T08:35:40;12.20;;;6.35;;
66384;SDS011;53426;55.872;37.462;2022-08-18T08:38:13;11.02;;;5.43;;
66384;SDS011;53426;55.872;37.462;2022-08-18T08:40:59;17.00;;;5.60;;
66384;SDS011;53426;55.872;37.462;2022-08-18T08:43:33;12.40;;;5.13;;
66384;SDS011;53426;55.872;37.462;2022-08-18T08:48:45;11.38;;;4.45;;
66384;SDS011;53426;55.872;37.462;2022-08-18T08:51:25;6.82;;;3.60;;
66384;SDS011;53426;55.872;37.462;2022-08-18T08:53:58;21.02;;;3.40;;
66384;SDS011;53426;55.872;37.462;2022-08-18T08:56:48;8.02;;;3.47;;
66384;SDS011;53426;55.872;37.462;2022-08-18T08:59:18;8.55;;;3.08;;
66384;SDS011;53426;55.872;37.462;2022-08-18T09:07:18;15.75;;;3.53;;
66384;SDS011;53426;55.872;37.462;2022-08-18T09:23:33;22.48;;;3.33;;
66384;SDS011;53426;55.872;37.462;2022-08-18T09:38:05;5.45;;;2.90;;
66384;SDS011;53426;55.872;37.462;2022-08-18T09:40:57;2.95;;;2.40;;
66384;SDS011;53426;55.872;37.462;2022-08-18T09:43:56;7.25;;;3.10;;
66384;SDS011;53426;55.872;37.462;2022-08-18T09:51:52;6.40;;;2.55;;
66384;SDS011;53426;55.872;37.462;2022-08-18T09:54:24;9.15;;;2.55;;
66384;SDS011;53426;55.872;37.462;2022-08-18T09:57:06;4.35;;;2.63;;
66384;SDS011;53426;55.872;37.462;2022-08-18T10:27:44;11.00;;;3.00;;
66384;SDS011;53426;55.872;37.462;2022-08-18T10:33:01;4.13;;;2.90;;
66384;SDS011;53426;55.872;37.462;2022-08-18T10:38:05;5.57;;;3.05;;
66384;SDS011;53426;55.872;37.462;2022-08-18T10:40:34;10.23;;;3.42;;
66384;SDS011;53426;55.872;37.462;2022-08-18T10:43:15;15.38;;;3.40;;
66384;SDS011;53426;55.872;37.462;2022-08-18T10:45:45;6.20;;;3.28;;
66384;SDS011;53426;55.872;37.462;2022-08-18T10:50:42;4.88;;;3.15;;
66384;SDS011;53426;55.872;37.462;2022-08-18T11:01:31;5.78;;;3.58;;
66384;SDS011;53426;55.872;37.462;2022-08-18T11:04:46;8.70;;;3.42;;
66384;SDS011;53426;55.872;37.462;2022-08-18T11:09:04;13.40;;;3.78;;
66384;SDS011;53426;55.872;37.462;2022-08-18T11:15:34;8.98;;;3.50;;
66384;SDS011;53426;55.872;37.462;2022-08-18T11:18:41;6.43;;;3.30;;
66384;SDS011;53426;55.872;37.462;2022-08-18T11:21:52;3.53;;;3.10;;
66384;SDS011;53426;55.872;37.462;2022-08-18T11:26:53;9.45;;;3.85;;
66384;SDS011;53426;55.872;37.462;2022-08-18T11:29:31;10.70;;;3.15;;
66384;SDS011;53426;55.872;37.462;2022-08-18T11:34:51;12.02;;;4.07;;
66384;SDS011;53426;55.872;37.462;2022-08-18T11:37:34;7.75;;;3.20;;
66384;SDS011;53426;55.872;37.462;2022-08-18T11:42:55;7.80;;;3.35;;
66384;SDS011;53426;55.872;37.462;2022-08-18T11:45:24;6.30;;;3.22;;
66384;SDS011;53426;55.872;37.462;2022-08-18T11:50:48;7.13;;;2.97;;
66384;SDS011;53426;55.872;37.462;2022-08-18T11:58:40;11.35;;;3.03;;
66384;SDS011;53426;55.872;37.462;2022-08-18T12:15:28;11.88;;;3.33;;
66384;SDS011;53426;55.872;37.462;2022-08-18T12:17:48;5.43;;;2.90;;
66384;SDS011;53426;55.872;37.462;2022-08-18T12:20:14;4.80;;;2.90;;
66384;SDS011;53426;55.872;37.462;2022-08-18T12:22:43;15.48;;;2.90;;
66384;SDS011;53426;55.872;37.462;2022-08-18T12:25:12;7.07;;;3.00;;
66384;SDS011;53426;55.872;37.462;2022-08-18T12:27:40;6.78;;;2.83;;
66384;SDS011;53426;55.872;37.462;2022-08-18T12:30:06;7.65;;;2.55;;
66384;SDS011;53426;55.872;37.462;2022-08-18T12:32:34;4.63;;;2.67;;
66384;SDS011;53426;55.872;37.462;2022-08-18T12:35:00;4.88;;;2.50;;
66384;SDS011;53426;55.872;37.462;2022-08-18T12:37:28;4.72;;;2.63;;
66384;SDS011;53426;55.872;37.462;2022-08-18T12:39:55;12.90;;;2.90;;
66384;SDS011;53426;55.872;37.462;2022-08-18T12:42:23;6.55;;;2.40;;
66384;SDS011;53426;55.872;37.462;2022-08-18T12:44:49;11.90;;;2.97;;
66384;SDS011;53426;55.872;37.462;2022-08-18T12:47:20;6.65;;;2.60;;
66384;SDS011;53426;55.872;37.462;2022-08-18T12:49:49;7.38;;;2.80;;
66384;SDS011;53426;55.872;37.462;2022-08-18T12:52:15;4.95;;;2.30;;
66384;SDS011;53426;55.872;37.462;2022-08-18T12:54:41;4.05;;;2.45;;
66384;SDS011;53426;55.872;37.462;2022-08-18T12:57:10;6.10;;;2.80;;
66384;SDS011;53426;55.872;37.462;2022-08-18T12:59:43;6.63;;;2.72;;
66384;SDS011;53426;55.872;37.462;2022-08-18T13:02:10;16.50;;;2.95;;
66384;SDS011;53426;55.872;37.462;2022-08-18T13:04:39;4.80;;;2.60;;
66384;SDS011;53426;55.872;37.462;2022-08-18T13:07:06;4.05;;;2.58;;
66384;SDS011;53426;55.872;37.462;2022-08-18T13:09:33;2.90;;;2.60;;
66384;SDS011;53426;55.872;37.462;2022-08-18T13:11:59;6.63;;;2.30;;
66384;SDS011;53426;55.872;37.462;2022-08-18T13:14:25;5.55;;;3.03;;
66384;SDS011;53426;55.872;37.462;2022-08-18T13:16:52;5.82;;;2.53;;
66384;SDS011;53426;55.872;37.462;2022-08-18T13:19:18;6.93;;;2.45;;
66384;SDS011;53426;55.872;37.462;2022-08-18T13:21:44;4.97;;;2.50;;
66384;SDS011;53426;55.872;37.462;2022-08-18T13:24:11;5.50;;;2.13;;
66384;SDS011;53426;55.872;37.462;2022-08-18T13:26:40;6.43;;;2.42;;
66384;SDS011;53426;55.872;37.462;2022-08-18T13:29:08;7.55;;;2.42;;
66384;SDS011;53426;55.872;37.462;2022-08-18T13:31:34;6.45;;;2.28;;
66384;SDS011;53426;55.872;37.462;2022-08-18T13:34:02;4.13;;;2.28;;
66384;SDS011;53426;55.872;37.462;2022-08-18T13:36:29;6.43;;;2.28;;
66384;SDS011;53426;55.872;37.462;2022-08-18T13:39:10;8.48;;;1.98;;
66384;SDS011;53426;55.872;37.462;2022-08-18T13:41:43;7.30;;;2.28;;
66384;SDS011;53426;55.872;37.462;2022-08-18T13:44:11;5.07;;;2.30;;
66384;SDS011;53426;55.872;37.462;2022-08-18T13:46:39;6.05;;;2.35;;
66384;SDS011;53426;55.872;37.462;2022-08-18T13:49:14;3.67;;;1.98;;
66384;SDS011;53426;55.872;37.462;2022-08-18T13:51:41;4.32;;;2.30;;
66384;SDS011;53426;55.872;37.462;2022-08-18T13:54:18;3.92;;;2.30;;
66384;SDS011;53426;55.872;37.462;2022-08-18T13:56:47;5.45;;;2.15;;
66384;SDS011;53426;55.872;37.462;2022-08-18T13:59:12;4.47;;;2.35;;
66384;SDS011;53426;55.872;37.462;2022-08-18T14:01:39;10.07;;;2.35;;
66384;SDS011;53426;55.872;37.462;2022-08-18T14:04:05;3.38;;;2.13;;
66384;SDS011;53426;55.872;37.462;2022-08-18T14:06:33;3.00;;;2.33;;
66384;SDS011;53426;55.872;37.462;2022-08-18T14:08:59;5.95;;;2.38;;
66384;SDS011;53426;55.872;37.462;2022-08-18T14:11:26;5.03;;;2.15;;
66384;SDS011;53426;55.872;37.462;2022-08-18T14:13:54;5.10;;;2.08;;
66384;SDS011;53426;55.872;37.462;2022-08-18T14:16:21;6.05;;;2.58;;
66384;SDS011;53426;55.872;37.462;2022-08-18T14:18:53;6.43;;;2.28;;
66384;SDS011;53426;55.872;37.462;2022-08-18T14:21:39;8.23;;;2.53;;
66384;SDS011;53426;55.872;37.462;2022-08-18T14:25:02;2.85;;;2.60;;
66384;SDS011;53426;55.872;37.462;2022-08-18T14:28:51;2.88;;;2.30;;
66384;SDS011;53426;55.872;37.462;2022-08-18T14:32:40;8.93;;;2.55;;
66384;SDS011;53426;55.872;37.462;2022-08-18T14:36:29;4.43;;;2.80;;
66384;SDS011;53426;55.872;37.462;2022-08-18T14:42:45;3.75;;;2.50;;
66384;SDS011;53426;55.872;37.462;2022-08-18T14:46:15;8.95;;;2.88;;
66384;SDS011;53426;55.872;37.462;2022-08-18T14:49:25;11.38;;;2.95;;
66384;SDS011;53426;55.872;37.462;2022-08-18T14:53:12;2.95;;;2.67;;
66384;SDS011;53426;55.872;37.462;2022-08-18T14:56:42;10.10;;;3.13;;
66384;SDS011;53426;55.872;37.462;2022-08-18T14:59:51;8.85;;;2.90;;
66384;SDS011;53426;55.872;37.462;2022-08-18T15:02:58;11.10;;;2.97;;
66384;SDS011;53426;55.872;37.462;2022-08-18T15:06:29;10.35;;;3.15;;
66384;SDS011;53426;55.872;37.462;2022-08-18T15:09:59;4.15;;;3.00;;
66384;SDS011;53426;55.872;37.462;2022-08-18T15:13:31;5.82;;;3.20;;
66384;SDS011;53426;55.872;37.462;2022-08-18T15:17:02;5.78;;;3.25;;
66384;SDS011;53426;55.872;37.462;2022-08-18T15:22:52;9.43;;;4.15;;
66384;SDS011;53426;55.872;37.462;2022-08-18T15:26:23;15.68;;;4.18;;
66384;SDS011;53426;55.872;37.462;2022-08-18T15:29:29;10.20;;;3.80;;
66384;SDS011;53426;55.872;37.462;2022-08-18T15:33:18;7.20;;;3.65;;
66384;SDS011;53426;55.872;37.462;2022-08-18T15:37:07;3.60;;;3.30;;
66384;SDS011;53426;55.872;37.462;2022-08-18T15:43:00;4.63;;;3.70;;
66384;SDS011;53426;55.872;37.462;2022-08-18T15:46:30;7.30;;;4.70;;
66384;SDS011;53426;55.872;37.462;2022-08-18T15:49:35;8.60;;;5.40;;
66384;SDS011;53426;55.872;37.462;2022-08-18T15:53:25;11.63;;;5.38;;
66384;SDS011;53426;55.872;37.462;2022-08-18T16:02:01;10.68;;;4.53;;
66384;SDS011;53426;55.872;37.462;2022-08-18T16:05:32;12.55;;;4.82;;
66384;SDS011;53426;55.872;37.462;2022-08-18T16:09:02;9.13;;;4.25;;
66384;SDS011;53426;55.872;37.462;2022-08-18T16:12:31;8.32;;;4.38;;
66384;SDS011;53426;55.872;37.462;2022-08-18T16:16:08;9.77;;;4.88;;
66384;SDS011;53426;55.872;37.462;2022-08-18T16:19:34;27.10;;;4.75;;
66384;SDS011;53426;55.872;37.462;2022-08-18T16:25:25;10.32;;;4.30;;
66384;SDS011;53426;55.872;37.462;2022-08-18T16:28:34;14.98;;;4.43;;
66384;SDS011;53426;55.872;37.462;2022-08-18T16:31:17;13.18;;;4.47;;
66384;SDS011;53426;55.872;37.462;2022-08-18T16:33:53;6.68;;;4.18;;
66384;SDS011;53426;55.872;37.462;2022-08-18T16:36:21;9.05;;;4.30;;
66384;SDS011;53426;55.872;37.462;2022-08-18T16:38:51;8.98;;;3.85;;
66384;SDS011;53426;55.872;37.462;2022-08-18T16:41:18;11.32;;;4.10;;
66384;SDS011;53426;55.872;37.462;2022-08-18T16:43:45;7.25;;;4.20;;
66384;SDS011;53426;55.872;37.462;2022-08-18T16:46:13;5.93;;;3.90;;
66384;SDS011;53426;55.872;37.462;2022-08-18T16:48:41;6.85;;;3.70;;
66384;SDS011;53426;55.872;37.462;2022-08-18T16:51:18;10.73;;;3.55;;
66384;SDS011;53426;55.872;37.462;2022-08-18T16:53:46;12.63;;;3.90;;
66384;SDS011;53426;55.872;37.462;2022-08-18T16:56:14;12.68;;;4.07;;
66384;SDS011;53426;55.872;37.462;2022-08-18T16:58:42;10.02;;;4.10;;
66384;SDS011;53426;55.872;37.462;2022-08-18T17:01:27;9.88;;;3.92;;
66384;SDS011;53426;55.872;37.462;2022-08-18T17:04:12;12.75;;;3.75;;
66384;SDS011;53426;55.872;37.462;2022-08-18T17:06:42;8.30;;;3.95;;
66384;SDS011;53426;55.872;37.462;2022-08-18T17:09:08;12.68;;;3.63;;
66384;SDS011;53426;55.872;37.462;2022-08-18T17:11:35;8.15;;;3.45;;
66384;SDS011;53426;55.872;37.462;2022-08-18T17:14:02;6.38;;;3.80;;
66384;SDS011;53426;55.872;37.462;2022-08-18T17:16:28;12.65;;;3.90;;
66384;SDS011;53426;55.872;37.462;2022-08-18T17:18:55;6.05;;;3.50;;
66384;SDS011;53426;55.872;37.462;2022-08-18T17:21:22;9.23;;;3.83;;
66384;SDS011;53426;55.872;37.462;2022-08-18T17:23:51;9.15;;;3.80;;
66384;SDS011;53426;55.872;37.462;2022-08-18T17:31:44;6.05;;;3.90;;
66384;SDS011;53426;55.872;37.462;2022-08-18T17:34:17;14.55;;;4.00;;
66384;SDS011;53426;55.872;37.462;2022-08-18T17:36:49;10.27;;;3.97;;
66384;SDS011;53426;55.872;37.462;2022-08-18T17:39:19;16.20;;;4.22;;
66384;SDS011;53426;55.872;37.462;2022-08-18T17:41:52;10.80;;;3.78;;
66384;SDS011;53426;55.872;37.462;2022-08-18T17:44:38;12.57;;;4.47;;
66384;SDS011;53426;55.872;37.462;2022-08-18T17:47:06;15.13;;;3.80;;
66384;SDS011;53426;55.872;37.462;2022-08-18T17:49:39;6.72;;;4.35;;
66384;SDS011;53426;55.872;37.462;2022-08-18T17:52:26;10.43;;;3.90;;
66384;SDS011;53426;55.872;37.462;2022-08-18T17:55:04;9.88;;;3.75;;
66384;SDS011;53426;55.872;37.462;2022-08-18T17:57:39;8.73;;;3.90;;
66384;SDS011;53426;55.872;37.462;2022-08-18T18:00:16;6.97;;;3.97;;
66384;SDS011;53426;55.872;37.462;2022-08-18T18:02:43;11.18;;;4.32;;
66384;SDS011;53426;55.872;37.462;2022-08-18T18:05:12;8.70;;;3.97;;
66384;SDS011;53426;55.872;37.462;2022-08-18T18:15:59;13.57;;;4.50;;
66384;SDS011;53426;55.872;37.462;2022-08-18T18:18:46;5.40;;;3.97;;
66384;SDS011;53426;55.872;37.462;2022-08-18T18:21:22;10.45;;;4.22;;
66384;SDS011;53426;55.872;37.462;2022-08-18T18:26:37;8.23;;;4.10;;
66384;SDS011;53426;55.872;37.462;2022-08-18T18:32:04;11.13;;;4.20;;
66384;SDS011;53426;55.872;37.462;2022-08-18T18:35:09;10.57;;;4.13;;
66384;SDS011;53426;55.872;37.462;2022-08-18T18:38:00;9.52;;;4.50;;
66384;SDS011;53426;55.872;37.462;2022-08-18T18:43:52;7.00;;;4.63;;
66384;SDS011;53426;55.872;37.462;2022-08-18T18:49:25;16.17;;;4.93;;
66384;SDS011;53426;55.872;37.462;2022-08-18T19:00:18;9.32;;;4.88;;
66384;SDS011;53426;55.872;37.462;2022-08-18T19:03:01;12.60;;;4.63;;
66384;SDS011;53426;55.872;37.462;2022-08-18T19:05:36;14.25;;;5.22;;
66384;SDS011;53426;55.872;37.462;2022-08-18T19:11:05;11.75;;;5.30;;
66384;SDS011;53426;55.872;37.462;2022-08-18T19:13:58;15.07;;;5.05;;
66384;SDS011;53426;55.872;37.462;2022-08-18T19:16:35;13.93;;;5.10;;
66384;SDS011;53426;55.872;37.462;2022-08-18T19:19:18;12.57;;;4.82;;
66384;SDS011;53426;55.872;37.462;2022-08-18T19:21:50;9.93;;;5.43;;
66384;SDS011;53426;55.872;37.462;2022-08-18T19:24:24;16.77;;;5.70;;
66384;SDS011;53426;55.872;37.462;2022-08-18T19:26:56;14.50;;;5.85;;
66384;SDS011;53426;55.872;37.462;2022-08-18T19:29:25;13.50;;;6.10;;
66384;SDS011;53426;55.872;37.462;2022-08-18T19:32:17;16.25;;;5.95;;
66384;SDS011;53426;55.872;37.462;2022-08-18T19:34:49;11.82;;;6.00;;
66384;SDS011;53426;55.872;37.462;2022-08-18T19:37:18;17.65;;;6.63;;
66384;SDS011;53426;55.872;37.462;2022-08-18T19:39:48;7.13;;;5.15;;
66384;SDS011;53426;55.872;37.462;2022-08-18T19:42:35;7.95;;;5.18;;
66384;SDS011;53426;55.872;37.462;2022-08-18T19:48:33;11.82;;;5.32;;
66384;SDS011;53426;55.872;37.462;2022-08-18T19:50:59;10.05;;;5.05;;
66384;SDS011;53426;55.872;37.462;2022-08-18T20:16:09;14.85;;;6.07;;
66384;SDS011;53426;55.872;37.462;2022-08-18T20:18:54;13.55;;;7.22;;
66384;SDS011;53426;55.872;37.462;2022-08-18T20:21:22;11.27;;;7.25;;
66384;SDS011;53426;55.872;37.462;2022-08-18T20:24:06;11.57;;;8.02;;
66384;SDS011;53426;55.872;37.462;2022-08-18T20:26:41;20.23;;;8.60;;
66384;SDS011;53426;55.872;37.462;2022-08-18T20:29:12;17.30;;;8.80;;
66384;SDS011;53426;55.872;37.462;2022-08-18T20:34:25;17.55;;;8.13;;
66384;SDS011;53426;55.872;37.462;2022-08-18T20:36:53;17.33;;;8.13;;
66384;SDS011;53426;55.872;37.462;2022-08-18T20:47:26;13.88;;;7.55;;